This is the latest recevied weather packets stored in our database for station/object AC2VK-1. If no packets are shown the sender has not sent any weather packets the latest 1 day(s).
| Time | Temp. | Humidity | Pressure | Rain* | Wind** | Luminosity | Snow |
|---|---|---|---|---|---|---|---|
| 1836274479 | 22.22° C | 82% | 1019.4 hPa | 0 mm | 0.89 m/s, 156° | - | - |
| 1836274329 | 22.22° C | 81% | 1019.4 hPa | 0 mm | 0.89 m/s, 156° | - | - |
| 1836273879 | 22.22° C | 81% | 1019.4 hPa | 0 mm | 0.45 m/s, 116° | - | - |
| 1778050754 | 22.22° C | 60% | 1010.8 hPa | 0 mm | 2.68 m/s, 173° | - | - |
| 1778050155 | 22.22° C | 60% | 1010.9 hPa | 0 mm | 2.24 m/s, 229° | - | - |
| 1778049555 | 22.22° C | 59% | 1011.2 hPa | 0 mm | 3.13 m/s, 149° | - | - |
| 1778048955 | 22.22° C | 58% | 1011.3 hPa | 0 mm | 3.13 m/s, 110° | - | - |
| 1778048355 | 22.22° C | 58% | 1011.6 hPa | 0 mm | 2.24 m/s, 131° | - | - |
| 1778047755 | 22.22° C | 58% | 1012.1 hPa | 0 mm | 1.79 m/s, 220° | - | - |
| 1778047155 | 22.22° C | 57% | 1012.2 hPa | 0 mm | 2.24 m/s, 112° | - | - |
| 1778046555 | 22.22° C | 56% | 1012.2 hPa | 0 mm | 1.34 m/s, 179° | - | - |
| 1778045955 | 21.67° C | 55% | 1012.1 hPa | 0 mm | 1.79 m/s, 160° | - | - |
| 1778045355 | 21.67° C | 54% | 1012.1 hPa | 0 mm | 1.34 m/s, 189° | - | - |
| 1778044755 | 21.67° C | 54% | 1012.3 hPa | 0 mm | 1.34 m/s, 194° | - | - |
| 1778044155 | 21.11° C | 54% | 1012.6 hPa | 0 mm | 0.89 m/s, 171° | - | - |
| 1778043555 | 21.11° C | 53% | 1012.4 hPa | 0 mm | 1.34 m/s, 203° | - | - |
| 1778042955 | 21.11° C | 53% | 1012.3 hPa | 0 mm | 0.45 m/s, 155° | - | - |
| 1778042355 | 21.11° C | 52% | 1012.2 hPa | 0 mm | 0.89 m/s, 178° | - | - |
| 1778041755 | 21.11° C | 52% | 1012.1 hPa | 0 mm | 0.89 m/s, 228° | - | - |
| 1778041155 | 21.11° C | 52% | 1012.2 hPa | 0 mm | 1.34 m/s, 220° | - | - |
| 1778040555 | 21.11° C | 52% | 1012.3 hPa | 0 mm | 1.34 m/s, 185° | - | - |
| 1778039955 | 21.11° C | 53% | 1012.1 hPa | 0 mm | 1.34 m/s, 154° | - | - |
| 1778039355 | 21.11° C | 53% | 1012.3 hPa | 0 mm | 0.89 m/s, 195° | - | - |
| 1778038755 | 21.11° C | 52% | 1012.5 hPa | 0 mm | 0.45 m/s, 268° | - | - |
| 1778038155 | 21.11° C | 51% | 1012.6 hPa | 0 mm | 0.89 m/s, 192° | - | - |
* Rain latest hour (hover to see other rain measurements)
** Current wind speed in m/s (hover to see current wind gust speed)